sensor_id;sensor_type;location;lat;lon;timestamp;P1;durP1;ratioP1;P2;durP2;ratioP2
42384;SDS011;28042;43.986;22.860;2022-11-23T00:00:27;32.13;;;22.55;;
42384;SDS011;28042;43.986;22.860;2022-11-23T00:02:56;30.08;;;22.13;;
42384;SDS011;28042;43.986;22.860;2022-11-23T00:05:23;33.88;;;22.73;;
42384;SDS011;28042;43.986;22.860;2022-11-23T00:07:49;32.63;;;21.73;;
42384;SDS011;28042;43.986;22.860;2022-11-23T00:10:15;33.65;;;21.95;;
42384;SDS011;28042;43.986;22.860;2022-11-23T00:12:41;36.20;;;24.05;;
42384;SDS011;28042;43.986;22.860;2022-11-23T00:15:07;31.80;;;24.25;;
42384;SDS011;28042;43.986;22.860;2022-11-23T00:17:32;31.45;;;23.10;;
42384;SDS011;28042;43.986;22.860;2022-11-23T00:19:58;35.45;;;24.27;;
42384;SDS011;28042;43.986;22.860;2022-11-23T00:22:24;37.28;;;25.30;;
42384;SDS011;28042;43.986;22.860;2022-11-23T00:24:49;32.22;;;23.48;;
42384;SDS011;28042;43.986;22.860;2022-11-23T00:27:15;35.03;;;23.35;;
42384;SDS011;28042;43.986;22.860;2022-11-23T00:29:40;34.78;;;24.20;;
42384;SDS011;28042;43.986;22.860;2022-11-23T00:32:06;33.53;;;24.60;;
42384;SDS011;28042;43.986;22.860;2022-11-23T00:34:32;32.38;;;22.98;;
42384;SDS011;28042;43.986;22.860;2022-11-23T00:36:57;34.47;;;23.83;;
42384;SDS011;28042;43.986;22.860;2022-11-23T00:39:23;32.03;;;23.30;;
42384;SDS011;28042;43.986;22.860;2022-11-23T00:41:48;35.88;;;25.85;;
42384;SDS011;28042;43.986;22.860;2022-11-23T00:44:14;35.30;;;25.23;;
42384;SDS011;28042;43.986;22.860;2022-11-23T00:46:39;33.97;;;25.33;;
42384;SDS011;28042;43.986;22.860;2022-11-23T00:49:05;35.90;;;25.23;;
42384;SDS011;28042;43.986;22.860;2022-11-23T00:51:31;34.13;;;25.48;;
42384;SDS011;28042;43.986;22.860;2022-11-23T00:53:58;36.10;;;25.35;;
42384;SDS011;28042;43.986;22.860;2022-11-23T00:56:25;39.88;;;27.35;;
42384;SDS011;28042;43.986;22.860;2022-11-23T00:58:52;41.50;;;27.23;;
42384;SDS011;28042;43.986;22.860;2022-11-23T01:01:19;40.90;;;27.98;;
42384;SDS011;28042;43.986;22.860;2022-11-23T01:03:48;39.85;;;28.15;;
42384;SDS011;28042;43.986;22.860;2022-11-23T01:06:16;43.35;;;29.50;;
42384;SDS011;28042;43.986;22.860;2022-11-23T01:08:50;46.80;;;31.48;;
42384;SDS011;28042;43.986;22.860;2022-11-23T01:11:18;43.15;;;29.80;;
42384;SDS011;28042;43.986;22.860;2022-11-23T01:13:45;40.33;;;30.42;;
42384;SDS011;28042;43.986;22.860;2022-11-23T01:16:15;48.22;;;30.63;;
42384;SDS011;28042;43.986;22.860;2022-11-23T01:18:45;45.63;;;30.40;;
42384;SDS011;28042;43.986;22.860;2022-11-23T01:21:11;46.35;;;31.27;;
42384;SDS011;28042;43.986;22.860;2022-11-23T01:23:37;41.97;;;30.42;;
42384;SDS011;28042;43.986;22.860;2022-11-23T01:26:03;43.03;;;29.33;;
42384;SDS011;28042;43.986;22.860;2022-11-23T01:28:33;45.60;;;30.88;;
42384;SDS011;28042;43.986;22.860;2022-11-23T01:31:03;40.38;;;29.08;;
42384;SDS011;28042;43.986;22.860;2022-11-23T01:33:36;38.97;;;28.85;;
42384;SDS011;28042;43.986;22.860;2022-11-23T01:36:21;45.03;;;29.05;;
42384;SDS011;28042;43.986;22.860;2022-11-23T01:38:48;40.33;;;28.63;;
42384;SDS011;28042;43.986;22.860;2022-11-23T01:41:15;44.42;;;29.35;;
42384;SDS011;28042;43.986;22.860;2022-11-23T01:43:44;39.38;;;28.00;;
42384;SDS011;28042;43.986;22.860;2022-11-23T01:46:10;39.97;;;28.95;;
42384;SDS011;28042;43.986;22.860;2022-11-23T01:51:12;44.20;;;29.92;;
42384;SDS011;28042;43.986;22.860;2022-11-23T01:53:41;39.55;;;29.25;;
42384;SDS011;28042;43.986;22.860;2022-11-23T01:56:09;39.55;;;27.27;;
42384;SDS011;28042;43.986;22.860;2022-11-23T01:58:40;42.92;;;28.20;;
42384;SDS011;28042;43.986;22.860;2022-11-23T02:01:09;39.72;;;27.77;;
42384;SDS011;28042;43.986;22.860;2022-11-23T02:03:35;40.60;;;28.58;;
42384;SDS011;28042;43.986;22.860;2022-11-23T02:06:02;40.53;;;28.80;;
42384;SDS011;28042;43.986;22.860;2022-11-23T02:08:31;44.03;;;27.15;;
42384;SDS011;28042;43.986;22.860;2022-11-23T02:10:58;40.60;;;27.85;;
42384;SDS011;28042;43.986;22.860;2022-11-23T02:13:24;38.72;;;28.27;;
42384;SDS011;28042;43.986;22.860;2022-11-23T02:15:53;37.75;;;28.58;;
42384;SDS011;28042;43.986;22.860;2022-11-23T02:18:20;42.78;;;28.17;;
42384;SDS011;28042;43.986;22.860;2022-11-23T02:20:48;44.90;;;29.00;;
42384;SDS011;28042;43.986;22.860;2022-11-23T02:26:08;42.85;;;28.02;;
42384;SDS011;28042;43.986;22.860;2022-11-23T02:28:42;40.17;;;27.67;;
42384;SDS011;28042;43.986;22.860;2022-11-23T02:31:11;38.17;;;26.67;;
42384;SDS011;28042;43.986;22.860;2022-11-23T02:33:37;38.45;;;28.77;;
42384;SDS011;28042;43.986;22.860;2022-11-23T02:42:10;39.92;;;26.25;;
42384;SDS011;28042;43.986;22.860;2022-11-23T02:44:40;39.28;;;26.52;;
42384;SDS011;28042;43.986;22.860;2022-11-23T02:47:12;37.38;;;27.92;;
42384;SDS011;28042;43.986;22.860;2022-11-23T02:49:39;40.13;;;29.40;;
42384;SDS011;28042;43.986;22.860;2022-11-23T02:52:05;40.45;;;28.73;;
42384;SDS011;28042;43.986;22.860;2022-11-23T02:54:31;41.88;;;29.17;;
42384;SDS011;28042;43.986;22.860;2022-11-23T02:56:57;37.33;;;27.50;;
42384;SDS011;28042;43.986;22.860;2022-11-23T02:59:23;40.15;;;28.83;;
42384;SDS011;28042;43.986;22.860;2022-11-23T03:01:48;39.72;;;27.60;;
42384;SDS011;28042;43.986;22.860;2022-11-23T03:04:14;39.00;;;27.23;;
42384;SDS011;28042;43.986;22.860;2022-11-23T03:06:39;38.33;;;25.65;;
42384;SDS011;28042;43.986;22.860;2022-11-23T03:09:05;39.08;;;28.25;;
42384;SDS011;28042;43.986;22.860;2022-11-23T03:11:31;38.65;;;27.58;;
42384;SDS011;28042;43.986;22.860;2022-11-23T03:13:57;40.10;;;27.67;;
42384;SDS011;28042;43.986;22.860;2022-11-23T03:16:23;38.42;;;27.00;;
42384;SDS011;28042;43.986;22.860;2022-11-23T03:18:49;39.35;;;26.90;;
42384;SDS011;28042;43.986;22.860;2022-11-23T03:21:15;41.00;;;26.98;;
42384;SDS011;28042;43.986;22.860;2022-11-23T03:23:40;36.60;;;25.83;;
42384;SDS011;28042;43.986;22.860;2022-11-23T03:26:06;39.75;;;27.38;;
42384;SDS011;28042;43.986;22.860;2022-11-23T03:28:31;40.10;;;27.83;;
42384;SDS011;28042;43.986;22.860;2022-11-23T03:30:57;45.45;;;28.42;;
42384;SDS011;28042;43.986;22.860;2022-11-23T03:33:22;38.13;;;25.20;;
42384;SDS011;28042;43.986;22.860;2022-11-23T03:35:48;40.33;;;28.50;;
42384;SDS011;28042;43.986;22.860;2022-11-23T03:38:14;45.35;;;28.30;;
42384;SDS011;28042;43.986;22.860;2022-11-23T03:40:39;41.92;;;28.15;;
42384;SDS011;28042;43.986;22.860;2022-11-23T03:43:05;42.63;;;28.77;;
42384;SDS011;28042;43.986;22.860;2022-11-23T03:45:31;41.75;;;29.52;;
42384;SDS011;28042;43.986;22.860;2022-11-23T03:47:56;47.55;;;32.35;;
42384;SDS011;28042;43.986;22.860;2022-11-23T03:50:22;44.97;;;29.77;;
42384;SDS011;28042;43.986;22.860;2022-11-23T03:52:48;43.90;;;29.20;;
42384;SDS011;28042;43.986;22.860;2022-11-23T03:55:14;46.50;;;30.73;;
42384;SDS011;28042;43.986;22.860;2022-11-23T03:57:39;42.58;;;29.38;;
42384;SDS011;28042;43.986;22.860;2022-11-23T04:00:05;40.30;;;27.65;;
42384;SDS011;28042;43.986;22.860;2022-11-23T04:02:32;44.58;;;28.58;;
42384;SDS011;28042;43.986;22.860;2022-11-23T04:04:58;43.25;;;29.33;;
42384;SDS011;28042;43.986;22.860;2022-11-23T04:07:23;43.58;;;28.92;;
42384;SDS011;28042;43.986;22.860;2022-11-23T04:09:49;48.53;;;32.35;;
42384;SDS011;28042;43.986;22.860;2022-11-23T04:12:14;49.42;;;31.88;;
42384;SDS011;28042;43.986;22.860;2022-11-23T04:14:40;44.30;;;30.60;;
42384;SDS011;28042;43.986;22.860;2022-11-23T04:17:05;43.38;;;29.10;;
42384;SDS011;28042;43.986;22.860;2022-11-23T04:19:31;44.92;;;29.88;;
42384;SDS011;28042;43.986;22.860;2022-11-23T04:21:57;45.50;;;31.52;;
42384;SDS011;28042;43.986;22.860;2022-11-23T04:24:22;42.90;;;28.67;;
42384;SDS011;28042;43.986;22.860;2022-11-23T04:26:48;45.90;;;32.55;;
42384;SDS011;28042;43.986;22.860;2022-11-23T04:29:13;47.75;;;28.27;;
42384;SDS011;28042;43.986;22.860;2022-11-23T04:31:39;45.65;;;30.88;;
42384;SDS011;28042;43.986;22.860;2022-11-23T04:34:04;48.72;;;32.25;;
42384;SDS011;28042;43.986;22.860;2022-11-23T04:36:30;45.58;;;31.85;;
42384;SDS011;28042;43.986;22.860;2022-11-23T04:38:55;41.65;;;28.95;;
42384;SDS011;28042;43.986;22.860;2022-11-23T04:41:21;50.35;;;32.78;;
42384;SDS011;28042;43.986;22.860;2022-11-23T04:43:48;56.97;;;38.17;;
42384;SDS011;28042;43.986;22.860;2022-11-23T04:46:14;45.63;;;29.88;;
42384;SDS011;28042;43.986;22.860;2022-11-23T04:48:39;40.17;;;29.63;;
42384;SDS011;28042;43.986;22.860;2022-11-23T04:51:05;42.05;;;29.60;;
42384;SDS011;28042;43.986;22.860;2022-11-23T04:53:31;47.38;;;32.63;;
42384;SDS011;28042;43.986;22.860;2022-11-23T04:55:56;44.40;;;31.05;;
42384;SDS011;28042;43.986;22.860;2022-11-23T04:58:22;50.53;;;32.10;;
42384;SDS011;28042;43.986;22.860;2022-11-23T05:00:47;45.70;;;31.60;;
42384;SDS011;28042;43.986;22.860;2022-11-23T05:03:13;52.15;;;35.17;;
42384;SDS011;28042;43.986;22.860;2022-11-23T05:05:39;45.55;;;32.08;;
42384;SDS011;28042;43.986;22.860;2022-11-23T05:08:06;39.42;;;28.00;;
42384;SDS011;28042;43.986;22.860;2022-11-23T05:10:32;42.70;;;29.70;;
42384;SDS011;28042;43.986;22.860;2022-11-23T05:12:57;46.88;;;31.48;;
42384;SDS011;28042;43.986;22.860;2022-11-23T05:15:23;55.13;;;35.53;;
42384;SDS011;28042;43.986;22.860;2022-11-23T05:17:49;42.53;;;28.77;;
42384;SDS011;28042;43.986;22.860;2022-11-23T05:20:15;43.88;;;30.05;;
42384;SDS011;28042;43.986;22.860;2022-11-23T05:22:40;47.70;;;30.58;;
42384;SDS011;28042;43.986;22.860;2022-11-23T05:25:06;45.72;;;30.88;;
42384;SDS011;28042;43.986;22.860;2022-11-23T05:27:32;41.15;;;29.17;;
42384;SDS011;28042;43.986;22.860;2022-11-23T05:29:57;38.78;;;27.23;;
42384;SDS011;28042;43.986;22.860;2022-11-23T05:32:23;40.35;;;28.92;;
42384;SDS011;28042;43.986;22.860;2022-11-23T05:34:48;35.95;;;25.98;;
42384;SDS011;28042;43.986;22.860;2022-11-23T05:37:14;43.92;;;31.20;;
42384;SDS011;28042;43.986;22.860;2022-11-23T05:39:39;48.38;;;33.38;;
42384;SDS011;28042;43.986;22.860;2022-11-23T05:42:05;38.90;;;27.48;;
42384;SDS011;28042;43.986;22.860;2022-11-23T05:44:30;42.60;;;30.17;;
42384;SDS011;28042;43.986;22.860;2022-11-23T05:46:56;39.80;;;29.20;;
42384;SDS011;28042;43.986;22.860;2022-11-23T05:49:21;40.58;;;27.75;;
42384;SDS011;28042;43.986;22.860;2022-11-23T05:51:47;42.65;;;28.38;;
42384;SDS011;28042;43.986;22.860;2022-11-23T05:54:12;73.15;;;49.13;;
42384;SDS011;28042;43.986;22.860;2022-11-23T05:56:38;215.30;;;122.00;;
42384;SDS011;28042;43.986;22.860;2022-11-23T05:59:03;103.47;;;60.15;;
42384;SDS011;28042;43.986;22.860;2022-11-23T06:01:29;207.63;;;98.38;;
42384;SDS011;28042;43.986;22.860;2022-11-23T06:03:56;55.58;;;33.10;;
42384;SDS011;28042;43.986;22.860;2022-11-23T06:06:21;37.92;;;27.05;;
42384;SDS011;28042;43.986;22.860;2022-11-23T06:08:47;42.05;;;27.67;;
42384;SDS011;28042;43.986;22.860;2022-11-23T06:11:12;45.55;;;29.27;;
42384;SDS011;28042;43.986;22.860;2022-11-23T06:13:38;134.38;;;83.25;;
42384;SDS011;28042;43.986;22.860;2022-11-23T06:16:04;93.18;;;60.67;;
42384;SDS011;28042;43.986;22.860;2022-11-23T06:18:30;69.45;;;48.42;;
42384;SDS011;28042;43.986;22.860;2022-11-23T06:20:58;71.10;;;49.38;;
42384;SDS011;28042;43.986;22.860;2022-11-23T06:23:24;60.20;;;38.97;;
42384;SDS011;28042;43.986;22.860;2022-11-23T06:25:49;69.15;;;44.33;;
42384;SDS011;28042;43.986;22.860;2022-11-23T06:28:15;48.08;;;34.47;;
42384;SDS011;28042;43.986;22.860;2022-11-23T06:30:40;45.63;;;32.58;;
42384;SDS011;28042;43.986;22.860;2022-11-23T06:33:06;43.72;;;31.05;;
42384;SDS011;28042;43.986;22.860;2022-11-23T06:35:31;47.38;;;32.42;;
42384;SDS011;28042;43.986;22.860;2022-11-23T06:37:57;49.10;;;30.83;;
42384;SDS011;28042;43.986;22.860;2022-11-23T06:40:22;46.00;;;31.40;;
42384;SDS011;28042;43.986;22.860;2022-11-23T06:42:48;42.58;;;31.20;;
42384;SDS011;28042;43.986;22.860;2022-11-23T06:45:13;47.03;;;33.47;;
42384;SDS011;28042;43.986;22.860;2022-11-23T06:47:39;37.90;;;29.17;;
42384;SDS011;28042;43.986;22.860;2022-11-23T06:50:05;45.10;;;32.13;;
42384;SDS011;28042;43.986;22.860;2022-11-23T06:52:32;39.25;;;28.10;;
42384;SDS011;28042;43.986;22.860;2022-11-23T06:54:57;43.33;;;30.85;;
42384;SDS011;28042;43.986;22.860;2022-11-23T06:57:23;39.40;;;28.60;;
42384;SDS011;28042;43.986;22.860;2022-11-23T06:59:48;39.45;;;28.15;;
42384;SDS011;28042;43.986;22.860;2022-11-23T07:02:14;36.33;;;26.20;;
42384;SDS011;28042;43.986;22.860;2022-11-23T07:04:39;37.63;;;26.48;;
42384;SDS011;28042;43.986;22.860;2022-11-23T07:07:08;36.53;;;25.75;;
42384;SDS011;28042;43.986;22.860;2022-11-23T07:09:33;33.70;;;25.33;;
42384;SDS011;28042;43.986;22.860;2022-11-23T07:11:59;31.20;;;24.65;;
42384;SDS011;28042;43.986;22.860;2022-11-23T07:14:25;40.08;;;28.80;;
42384;SDS011;28042;43.986;22.860;2022-11-23T07:16:50;35.33;;;25.15;;
42384;SDS011;28042;43.986;22.860;2022-11-23T07:19:16;35.67;;;25.35;;
42384;SDS011;28042;43.986;22.860;2022-11-23T07:21:41;37.60;;;25.85;;
42384;SDS011;28042;43.986;22.860;2022-11-23T07:24:06;33.97;;;26.05;;
42384;SDS011;28042;43.986;22.860;2022-11-23T07:26:32;42.40;;;29.33;;
42384;SDS011;28042;43.986;22.860;2022-11-23T07:28:57;34.47;;;24.65;;
42384;SDS011;28042;43.986;22.860;2022-11-23T07:31:23;33.17;;;22.02;;
42384;SDS011;28042;43.986;22.860;2022-11-23T07:33:48;29.42;;;22.20;;
42384;SDS011;28042;43.986;22.860;2022-11-23T07:36:14;27.13;;;20.30;;
42384;SDS011;28042;43.986;22.860;2022-11-23T07:38:40;32.67;;;24.10;;
42384;SDS011;28042;43.986;22.860;2022-11-23T07:41:07;37.55;;;27.08;;
42384;SDS011;28042;43.986;22.860;2022-11-23T07:43:32;37.92;;;29.02;;
42384;SDS011;28042;43.986;22.860;2022-11-23T07:45:58;41.45;;;30.08;;
42384;SDS011;28042;43.986;22.860;2022-11-23T07:48:23;40.28;;;28.33;;
42384;SDS011;28042;43.986;22.860;2022-11-23T07:50:52;51.33;;;34.28;;
42384;SDS011;28042;43.986;22.860;2022-11-23T07:53:19;35.85;;;25.50;;
42384;SDS011;28042;43.986;22.860;2022-11-23T07:55:44;32.10;;;24.65;;
42384;SDS011;28042;43.986;22.860;2022-11-23T07:58:10;34.70;;;25.25;;
42384;SDS011;28042;43.986;22.860;2022-11-23T08:00:35;32.95;;;24.15;;
42384;SDS011;28042;43.986;22.860;2022-11-23T08:03:02;34.05;;;21.60;;
42384;SDS011;28042;43.986;22.860;2022-11-23T08:05:30;31.15;;;22.67;;
42384;SDS011;28042;43.986;22.860;2022-11-23T08:07:59;33.13;;;23.63;;
42384;SDS011;28042;43.986;22.860;2022-11-23T08:10:26;35.33;;;25.10;;
42384;SDS011;28042;43.986;22.860;2022-11-23T08:12:55;65.72;;;43.17;;
42384;SDS011;28042;43.986;22.860;2022-11-23T08:15:22;43.55;;;30.30;;
42384;SDS011;28042;43.986;22.860;2022-11-23T08:17:48;32.13;;;24.02;;
42384;SDS011;28042;43.986;22.860;2022-11-23T08:20:13;30.33;;;22.63;;
42384;SDS011;28042;43.986;22.860;2022-11-23T08:22:39;30.85;;;23.25;;
42384;SDS011;28042;43.986;22.860;2022-11-23T08:25:04;28.52;;;22.58;;
42384;SDS011;28042;43.986;22.860;2022-11-23T08:27:30;29.52;;;21.90;;
42384;SDS011;28042;43.986;22.860;2022-11-23T08:29:55;30.33;;;23.38;;
42384;SDS011;28042;43.986;22.860;2022-11-23T08:32:21;31.20;;;24.33;;
42384;SDS011;28042;43.986;22.860;2022-11-23T08:34:46;30.90;;;22.55;;
42384;SDS011;28042;43.986;22.860;2022-11-23T08:37:12;34.47;;;24.88;;
42384;SDS011;28042;43.986;22.860;2022-11-23T08:39:37;30.35;;;21.98;;
42384;SDS011;28042;43.986;22.860;2022-11-23T08:42:03;31.90;;;23.50;;
42384;SDS011;28042;43.986;22.860;2022-11-23T08:44:28;30.10;;;23.73;;
42384;SDS011;28042;43.986;22.860;2022-11-23T08:46:54;28.40;;;22.15;;
42384;SDS011;28042;43.986;22.860;2022-11-23T08:49:19;34.20;;;25.35;;
42384;SDS011;28042;43.986;22.860;2022-11-23T08:51:45;37.55;;;28.98;;
42384;SDS011;28042;43.986;22.860;2022-11-23T08:54:10;34.78;;;26.10;;
42384;SDS011;28042;43.986;22.860;2022-11-23T08:56:36;34.08;;;24.77;;
42384;SDS011;28042;43.986;22.860;2022-11-23T08:59:01;31.85;;;24.90;;
42384;SDS011;28042;43.986;22.860;2022-11-23T09:01:27;53.90;;;41.55;;
42384;SDS011;28042;43.986;22.860;2022-11-23T09:03:52;30.05;;;23.15;;
42384;SDS011;28042;43.986;22.860;2022-11-23T09:06:19;27.65;;;22.13;;
42384;SDS011;28042;43.986;22.860;2022-11-23T09:08:44;31.08;;;23.42;;
42384;SDS011;28042;43.986;22.860;2022-11-23T09:11:11;29.73;;;23.40;;
42384;SDS011;28042;43.986;22.860;2022-11-23T09:13:38;30.98;;;21.38;;
42384;SDS011;28042;43.986;22.860;2022-11-23T09:16:04;31.90;;;23.38;;
42384;SDS011;28042;43.986;22.860;2022-11-23T09:18:30;29.80;;;22.90;;
42384;SDS011;28042;43.986;22.860;2022-11-23T09:20:57;30.00;;;24.47;;
42384;SDS011;28042;43.986;22.860;2022-11-23T09:23:25;32.13;;;24.98;;
42384;SDS011;28042;43.986;22.860;2022-11-23T09:25:51;36.38;;;26.98;;
42384;SDS011;28042;43.986;22.860;2022-11-23T09:28:17;30.75;;;25.73;;
42384;SDS011;28042;43.986;22.860;2022-11-23T09:30:48;35.00;;;24.67;;
42384;SDS011;28042;43.986;22.860;2022-11-23T09:33:13;29.83;;;25.35;;
42384;SDS011;28042;43.986;22.860;2022-11-23T09:35:39;35.67;;;27.15;;
42384;SDS011;28042;43.986;22.860;2022-11-23T09:38:04;32.85;;;25.63;;
42384;SDS011;28042;43.986;22.860;2022-11-23T09:40:32;40.85;;;27.27;;
42384;SDS011;28042;43.986;22.860;2022-11-23T09:43:04;38.28;;;29.23;;
42384;SDS011;28042;43.986;22.860;2022-11-23T09:45:46;34.45;;;25.95;;
42384;SDS011;28042;43.986;22.860;2022-11-23T09:48:26;37.78;;;27.67;;
42384;SDS011;28042;43.986;22.860;2022-11-23T09:51:15;38.13;;;28.00;;
42384;SDS011;28042;43.986;22.860;2022-11-23T09:53:50;37.65;;;29.40;;
42384;SDS011;28042;43.986;22.860;2022-11-23T09:56:21;40.55;;;29.65;;
42384;SDS011;28042;43.986;22.860;2022-11-23T09:58:52;36.08;;;27.27;;
42384;SDS011;28042;43.986;22.860;2022-11-23T10:01:20;38.67;;;27.25;;
42384;SDS011;28042;43.986;22.860;2022-11-23T10:03:46;39.05;;;27.50;;
42384;SDS011;28042;43.986;22.860;2022-11-23T10:06:19;36.38;;;27.83;;
42384;SDS011;28042;43.986;22.860;2022-11-23T10:11:49;41.00;;;30.25;;
42384;SDS011;28042;43.986;22.860;2022-11-23T10:14:27;33.58;;;25.58;;
42384;SDS011;28042;43.986;22.860;2022-11-23T10:20:20;31.27;;;23.90;;
42384;SDS011;28042;43.986;22.860;2022-11-23T10:23:01;35.72;;;26.80;;
42384;SDS011;28042;43.986;22.860;2022-11-23T10:25:47;34.67;;;25.38;;
42384;SDS011;28042;43.986;22.860;2022-11-23T10:28:15;35.90;;;27.65;;
42384;SDS011;28042;43.986;22.860;2022-11-23T10:30:47;34.20;;;27.08;;
42384;SDS011;28042;43.986;22.860;2022-11-23T10:36:34;42.50;;;29.20;;
42384;SDS011;28042;43.986;22.860;2022-11-23T10:39:01;36.15;;;28.00;;
42384;SDS011;28042;43.986;22.860;2022-11-23T10:41:33;41.22;;;28.98;;
42384;SDS011;28042;43.986;22.860;2022-11-23T10:46:30;35.40;;;25.73;;
42384;SDS011;28042;43.986;22.860;2022-11-23T10:51:44;31.92;;;23.83;;
42384;SDS011;28042;43.986;22.860;2022-11-23T10:57:02;37.63;;;25.55;;
42384;SDS011;28042;43.986;22.860;2022-11-23T10:59:55;37.60;;;25.42;;
42384;SDS011;28042;43.986;22.860;2022-11-23T11:02:23;40.60;;;28.65;;
42384;SDS011;28042;43.986;22.860;2022-11-23T11:04:50;43.33;;;31.15;;
42384;SDS011;28042;43.986;22.860;2022-11-23T11:07:35;31.23;;;24.55;;
42384;SDS011;28042;43.986;22.860;2022-11-23T11:10:02;27.88;;;22.33;;
42384;SDS011;28042;43.986;22.860;2022-11-23T11:12:32;27.17;;;22.40;;
42384;SDS011;28042;43.986;22.860;2022-11-23T11:17:28;31.15;;;24.02;;
42384;SDS011;28042;43.986;22.860;2022-11-23T11:19:58;31.20;;;22.42;;
42384;SDS011;28042;43.986;22.860;2022-11-23T11:24:57;29.65;;;22.33;;
42384;SDS011;28042;43.986;22.860;2022-11-23T11:27:23;35.13;;;24.92;;
42384;SDS011;28042;43.986;22.860;2022-11-23T11:29:51;31.00;;;22.65;;
42384;SDS011;28042;43.986;22.860;2022-11-23T11:35:25;31.08;;;22.73;;
42384;SDS011;28042;43.986;22.860;2022-11-23T11:37:58;28.48;;;21.17;;
42384;SDS011;28042;43.986;22.860;2022-11-23T11:40:30;27.92;;;20.52;;
42384;SDS011;28042;43.986;22.860;2022-11-23T11:45:37;30.42;;;22.55;;
42384;SDS011;28042;43.986;22.860;2022-11-23T11:48:12;26.45;;;20.08;;
42384;SDS011;28042;43.986;22.860;2022-11-23T11:53:49;30.08;;;21.15;;
42384;SDS011;28042;43.986;22.860;2022-11-23T11:58:55;30.85;;;22.85;;
42384;SDS011;28042;43.986;22.860;2022-11-23T12:01:41;32.40;;;22.80;;
42384;SDS011;28042;43.986;22.860;2022-11-23T12:04:22;26.70;;;21.02;;
42384;SDS011;28042;43.986;22.860;2022-11-23T12:07:07;31.17;;;21.80;;
42384;SDS011;28042;43.986;22.860;2022-11-23T12:09:51;31.02;;;22.58;;
42384;SDS011;28042;43.986;22.860;2022-11-23T12:12:19;32.00;;;22.65;;
42384;SDS011;28042;43.986;22.860;2022-11-23T12:14:46;27.77;;;20.95;;
42384;SDS011;28042;43.986;22.860;2022-11-23T12:17:25;28.20;;;20.42;;
42384;SDS011;28042;43.986;22.860;2022-11-23T12:25:40;28.88;;;22.77;;
42384;SDS011;28042;43.986;22.860;2022-11-23T12:43:48;34.30;;;22.05;;
42384;SDS011;28042;43.986;22.860;2022-11-23T12:46:36;32.83;;;22.75;;
42384;SDS011;28042;43.986;22.860;2022-11-23T13:00:38;32.53;;;22.98;;
42384;SDS011;28042;43.986;22.860;2022-11-23T13:03:29;32.95;;;22.70;;
42384;SDS011;28042;43.986;22.860;2022-11-23T13:22:15;34.60;;;24.42;;
42384;SDS011;28042;43.986;22.860;2022-11-23T13:27:28;38.33;;;25.35;;
42384;SDS011;28042;43.986;22.860;2022-11-23T13:29:56;35.90;;;23.88;;
42384;SDS011;28042;43.986;22.860;2022-11-23T13:42:59;40.45;;;25.90;;
42384;SDS011;28042;43.986;22.860;2022-11-23T13:45:46;31.52;;;23.02;;
42384;SDS011;28042;43.986;22.860;2022-11-23T13:48:44;39.63;;;27.45;;
42384;SDS011;28042;43.986;22.860;2022-11-23T13:51:11;35.78;;;25.50;;
42384;SDS011;28042;43.986;22.860;2022-11-23T13:53:37;37.20;;;25.10;;
42384;SDS011;28042;43.986;22.860;2022-11-23T13:56:20;40.20;;;26.92;;
42384;SDS011;28042;43.986;22.860;2022-11-23T13:58:52;37.22;;;24.10;;
42384;SDS011;28042;43.986;22.860;2022-11-23T14:04:30;33.28;;;23.38;;
42384;SDS011;28042;43.986;22.860;2022-11-23T14:06:58;31.85;;;22.33;;
42384;SDS011;28042;43.986;22.860;2022-11-23T14:09:50;32.45;;;24.05;;
42384;SDS011;28042;43.986;22.860;2022-11-23T14:20:10;40.85;;;23.38;;
42384;SDS011;28042;43.986;22.860;2022-11-23T14:34:16;48.70;;;35.97;;
42384;SDS011;28042;43.986;22.860;2022-11-23T14:37:12;46.88;;;35.33;;
42384;SDS011;28042;43.986;22.860;2022-11-23T14:39:49;57.63;;;40.05;;
42384;SDS011;28042;43.986;22.860;2022-11-23T14:42:24;68.97;;;45.47;;
42384;SDS011;28042;43.986;22.860;2022-11-23T14:44:52;70.57;;;48.78;;
42384;SDS011;28042;43.986;22.860;2022-11-23T14:47:26;66.20;;;45.35;;
42384;SDS011;28042;43.986;22.860;2022-11-23T14:49:53;66.47;;;46.72;;
42384;SDS011;28042;43.986;22.860;2022-11-23T14:52:30;72.03;;;51.42;;
42384;SDS011;28042;43.986;22.860;2022-11-23T14:54:59;72.32;;;51.08;;
42384;SDS011;28042;43.986;22.860;2022-11-23T14:57:30;68.85;;;48.75;;
42384;SDS011;28042;43.986;22.860;2022-11-23T15:00:24;68.47;;;49.20;;
42384;SDS011;28042;43.986;22.860;2022-11-23T15:02:53;68.13;;;48.45;;
42384;SDS011;28042;43.986;22.860;2022-11-23T15:05:22;59.75;;;41.08;;
42384;SDS011;28042;43.986;22.860;2022-11-23T15:13:14;132.43;;;82.05;;
42384;SDS011;28042;43.986;22.860;2022-11-23T15:15:45;67.68;;;45.85;;
42384;SDS011;28042;43.986;22.860;2022-11-23T15:18:16;50.92;;;36.72;;
42384;SDS011;28042;43.986;22.860;2022-11-23T15:20:51;56.17;;;40.08;;
42384;SDS011;28042;43.986;22.860;2022-11-23T15:23:20;66.82;;;44.10;;
42384;SDS011;28042;43.986;22.860;2022-11-23T15:25:51;56.42;;;38.60;;
42384;SDS011;28042;43.986;22.860;2022-11-23T15:28:16;67.13;;;44.85;;
42384;SDS011;28042;43.986;22.860;2022-11-23T15:30:47;56.85;;;39.63;;
42384;SDS011;28042;43.986;22.860;2022-11-23T15:33:13;52.92;;;35.10;;
42384;SDS011;28042;43.986;22.860;2022-11-23T15:35:38;48.78;;;32.33;;
42384;SDS011;28042;43.986;22.860;2022-11-23T15:38:11;51.05;;;31.10;;
42384;SDS011;28042;43.986;22.860;2022-11-23T15:40:40;42.97;;;31.42;;
42384;SDS011;28042;43.986;22.860;2022-11-23T15:43:14;41.22;;;29.27;;
42384;SDS011;28042;43.986;22.860;2022-11-23T15:50:51;51.30;;;35.83;;
42384;SDS011;28042;43.986;22.860;2022-11-23T15:53:19;43.63;;;30.75;;
42384;SDS011;28042;43.986;22.860;2022-11-23T15:55:49;76.70;;;54.08;;
42384;SDS011;28042;43.986;22.860;2022-11-23T15:58:16;56.05;;;40.00;;
42384;SDS011;28042;43.986;22.860;2022-11-23T16:06:17;39.90;;;28.75;;
42384;SDS011;28042;43.986;22.860;2022-11-23T16:08:46;37.70;;;28.02;;
42384;SDS011;28042;43.986;22.860;2022-11-23T16:16:58;42.28;;;29.13;;
42384;SDS011;28042;43.986;22.860;2022-11-23T16:19:38;40.90;;;28.27;;
42384;SDS011;28042;43.986;22.860;2022-11-23T16:22:14;40.83;;;28.88;;
42384;SDS011;28042;43.986;22.860;2022-11-23T16:24:46;36.60;;;28.20;;
42384;SDS011;28042;43.986;22.860;2022-11-23T16:27:14;43.58;;;29.65;;
42384;SDS011;28042;43.986;22.860;2022-11-23T16:29:40;43.88;;;30.17;;
42384;SDS011;28042;43.986;22.860;2022-11-23T16:32:19;56.75;;;36.55;;
42384;SDS011;28042;43.986;22.860;2022-11-23T16:34:48;50.67;;;35.15;;
42384;SDS011;28042;43.986;22.860;2022-11-23T16:37:13;40.95;;;30.02;;
42384;SDS011;28042;43.986;22.860;2022-11-23T16:39:39;47.72;;;34.40;;
42384;SDS011;28042;43.986;22.860;2022-11-23T16:42:04;47.78;;;33.97;;
42384;SDS011;28042;43.986;22.860;2022-11-23T16:44:30;46.10;;;32.97;;
42384;SDS011;28042;43.986;22.860;2022-11-23T16:46:57;45.45;;;33.67;;